createdAt,value
2022-09-21T00:00:39.551Z,11.27
2022-09-21T00:01:39.574Z,11.24
2022-09-21T00:02:39.539Z,11.35
2022-09-21T00:03:39.501Z,11.32
2022-09-21T00:04:39.490Z,11.25
2022-09-21T00:05:39.489Z,11.31
2022-09-21T00:06:39.471Z,11.24
2022-09-21T00:07:39.462Z,11.27
2022-09-21T00:08:39.446Z,11.28
2022-09-21T00:09:39.441Z,11.10
2022-09-21T00:10:39.456Z,11.25
2022-09-21T00:11:39.418Z,11.19
2022-09-21T00:12:39.402Z,11.17
2022-09-21T00:13:39.424Z,11.14
2022-09-21T00:14:39.381Z,11.14
2022-09-21T00:15:39.401Z,11.25
2022-09-21T00:16:39.377Z,11.25
2022-09-21T00:17:40.107Z,11.21
2022-09-21T00:18:39.339Z,11.19
2022-09-21T00:19:39.330Z,11.16
2022-09-21T00:20:39.330Z,11.28
2022-09-21T00:21:39.317Z,11.21
2022-09-21T00:22:39.303Z,11.27
2022-09-21T00:23:39.293Z,11.20
2022-09-21T00:24:39.274Z,11.19
2022-09-21T00:25:39.284Z,11.13
2022-09-21T00:26:39.254Z,11.09
2022-09-21T00:27:39.244Z,11.19
2022-09-21T00:28:39.233Z,11.24
2022-09-21T00:29:39.223Z,11.19
2022-09-21T00:30:39.223Z,11.19
2022-09-21T00:31:39.273Z,11.25
2022-09-21T00:32:39.192Z,11.20
2022-09-21T00:33:39.183Z,11.19
2022-09-21T00:34:39.170Z,11.19
2022-09-21T00:35:39.169Z,11.21
2022-09-21T00:36:39.147Z,11.16
2022-09-21T00:37:39.139Z,11.19
2022-09-21T00:38:39.143Z,11.19
2022-09-21T00:39:39.118Z,11.16
2022-09-21T00:40:39.321Z,11.24
2022-09-21T00:41:39.110Z,11.16
2022-09-21T00:42:39.084Z,11.20
2022-09-21T00:43:39.072Z,11.17
2022-09-21T00:44:39.065Z,11.24
2022-09-21T00:45:39.134Z,11.19
2022-09-21T00:46:39.040Z,11.19
2022-09-21T00:47:39.048Z,11.21
2022-09-21T00:48:39.021Z,11.17
2022-09-21T00:49:39.012Z,11.17
2022-09-21T00:50:39.008Z,11.19
2022-09-21T00:51:38.987Z,11.13
2022-09-21T00:52:38.975Z,11.16
2022-09-21T00:53:38.966Z,11.14
2022-09-21T00:54:38.952Z,11.16
2022-09-21T00:55:38.952Z,11.17
2022-09-21T00:56:38.934Z,11.13
2022-09-21T00:57:38.923Z,11.09
2022-09-21T00:58:38.913Z,11.06
2022-09-21T00:59:39.911Z,11.21
2022-09-21T01:00:38.933Z,11.11
2022-09-21T01:01:38.898Z,11.19
2022-09-21T01:02:38.868Z,11.16
2022-09-21T01:03:38.878Z,11.09
2022-09-21T01:04:38.845Z,11.10
2022-09-21T01:05:38.850Z,11.17
2022-09-21T01:06:38.824Z,11.13
2022-09-21T01:07:38.817Z,11.13
2022-09-21T01:08:38.804Z,11.13
2022-09-21T01:09:38.797Z,11.11
2022-09-21T01:10:38.788Z,11.11
2022-09-21T01:11:38.782Z,11.03
2022-09-21T01:12:38.760Z,11.10
2022-09-21T01:13:38.750Z,10.95
2022-09-21T01:14:38.772Z,11.06
2022-09-21T01:15:38.729Z,10.92
2022-09-21T01:16:38.767Z,10.98
2022-09-21T01:17:38.716Z,10.95
2022-09-21T01:18:38.701Z,10.95
2022-09-21T01:19:38.703Z,10.89
2022-09-21T01:20:38.675Z,10.92
2022-09-21T01:21:38.679Z,10.96
2022-09-21T01:22:38.652Z,10.95
2022-09-21T01:23:38.643Z,10.92
2022-09-21T01:24:38.630Z,10.96
2022-09-21T01:25:38.622Z,10.98
2022-09-21T01:26:38.624Z,10.96
2022-09-21T01:27:38.599Z,10.91
2022-09-21T01:28:38.588Z,11.01
2022-09-21T01:29:38.578Z,10.91
2022-09-21T01:30:38.576Z,10.92
2022-09-21T01:31:38.618Z,10.94
2022-09-21T01:32:38.548Z,10.92
2022-09-21T01:33:38.537Z,10.95
2022-09-21T01:34:38.522Z,10.92
2022-09-21T01:35:38.541Z,10.99
2022-09-21T01:36:38.504Z,10.96
2022-09-21T01:37:38.493Z,10.91
2022-09-21T01:38:38.486Z,10.95
2022-09-21T01:39:38.470Z,11.01
2022-09-21T01:40:38.542Z,10.94
2022-09-21T01:41:38.450Z,10.92
2022-09-21T01:42:38.437Z,10.99
2022-09-21T01:43:38.426Z,10.92
2022-09-21T01:44:38.414Z,10.98
2022-09-21T01:45:38.474Z,10.98
2022-09-21T01:46:38.397Z,10.96
2022-09-21T01:47:38.386Z,11.01
2022-09-21T01:48:38.371Z,10.98
2022-09-21T01:49:38.365Z,10.95
2022-09-21T01:50:38.368Z,10.94
2022-09-21T01:51:38.356Z,10.96
2022-09-21T01:52:38.332Z,10.99
2022-09-21T01:53:38.322Z,10.91
2022-09-21T01:54:38.308Z,10.99
2022-09-21T01:55:38.313Z,10.91
2022-09-21T01:56:38.287Z,10.91
2022-09-21T01:57:38.281Z,10.84
2022-09-21T01:58:38.269Z,10.95
2022-09-21T01:59:38.255Z,10.98
2022-09-21T02:00:38.289Z,10.91
2022-09-21T02:01:38.305Z,10.86
2022-09-21T02:02:38.222Z,10.92
2022-09-21T02:03:38.272Z,10.83
2022-09-21T02:04:38.204Z,10.86
2022-09-21T02:05:38.190Z,10.86
2022-09-21T02:06:38.192Z,10.88
2022-09-21T02:07:38.190Z,10.78
2022-09-21T02:08:38.155Z,10.83
2022-09-21T02:09:38.175Z,10.84
2022-09-21T02:10:38.149Z,10.84
2022-09-21T02:11:38.124Z,10.89
2022-09-21T02:12:38.112Z,10.91
2022-09-21T02:13:38.137Z,10.86
2022-09-21T02:14:38.092Z,10.88
2022-09-21T02:15:38.098Z,10.78
2022-09-21T02:16:38.123Z,10.89
2022-09-21T02:17:38.059Z,10.83
2022-09-21T02:18:38.045Z,10.78
2022-09-21T02:19:38.043Z,10.78
2022-09-21T02:20:38.034Z,10.81
2022-09-21T02:21:38.013Z,10.74
2022-09-21T02:22:38.005Z,10.86
2022-09-21T02:23:38.008Z,10.86
2022-09-21T02:24:37.980Z,10.77
2022-09-21T02:25:37.969Z,10.83
2022-09-21T02:26:37.971Z,10.89
2022-09-21T02:27:37.947Z,10.83
2022-09-21T02:28:37.938Z,10.83
2022-09-21T02:29:37.927Z,10.91
2022-09-21T02:30:37.916Z,10.88
2022-09-21T02:31:37.964Z,10.83
2022-09-21T02:32:37.893Z,10.83
2022-09-21T02:33:37.887Z,10.80
2022-09-21T02:34:37.946Z,10.80
2022-09-21T02:35:37.863Z,10.77
2022-09-21T02:36:37.863Z,10.78
2022-09-21T02:37:37.843Z,10.74
2022-09-21T02:38:37.831Z,10.78
2022-09-21T02:39:37.832Z,10.70
2022-09-21T02:40:37.839Z,10.77
2022-09-21T02:41:37.808Z,10.78
2022-09-21T02:42:37.785Z,10.70
2022-09-21T02:43:37.837Z,10.73
2022-09-21T02:44:37.761Z,10.76
2022-09-21T02:45:37.762Z,10.77
2022-09-21T02:46:37.775Z,10.71
2022-09-21T02:47:37.785Z,10.77
2022-09-21T02:48:37.714Z,10.74
2022-09-21T02:49:37.705Z,10.81
2022-09-21T02:50:37.716Z,10.84
2022-09-21T02:51:37.693Z,10.86
2022-09-21T02:52:37.672Z,10.77
2022-09-21T02:53:37.662Z,10.74
2022-09-21T02:54:37.652Z,10.80
2022-09-21T02:55:37.680Z,10.73
2022-09-21T02:56:37.627Z,10.68
2022-09-21T02:57:37.618Z,10.77
2022-09-21T02:58:37.609Z,10.77
2022-09-21T02:59:37.599Z,10.70
2022-09-21T03:00:37.622Z,10.65
2022-09-21T03:01:37.610Z,10.65
2022-09-21T03:02:37.563Z,10.68
2022-09-21T03:03:37.553Z,10.70
2022-09-21T03:04:37.540Z,10.65
2022-09-21T03:05:37.549Z,10.71
2022-09-21T03:06:37.518Z,10.62
2022-09-21T03:07:37.514Z,10.65
2022-09-21T03:08:37.496Z,10.60
2022-09-21T03:09:37.486Z,10.70
2022-09-21T03:10:37.477Z,10.70
2022-09-21T03:11:37.490Z,10.70
2022-09-21T03:12:37.458Z,10.60
2022-09-21T03:13:37.442Z,10.66
2022-09-21T03:14:37.431Z,10.70
2022-09-21T03:15:37.453Z,10.70
2022-09-21T03:16:37.420Z,10.73
2022-09-21T03:17:37.399Z,10.63
2022-09-21T03:18:37.388Z,10.70
2022-09-21T03:19:37.375Z,10.73
2022-09-21T03:20:37.365Z,10.66
2022-09-21T03:21:41.149Z,10.76
2022-09-21T03:22:38.343Z,10.71
2022-09-21T03:23:37.335Z,10.68
2022-09-21T03:24:37.322Z,10.71
2022-09-21T03:25:37.310Z,10.74
2022-09-21T03:26:37.309Z,10.66
2022-09-21T03:27:37.340Z,10.70
2022-09-21T03:28:37.275Z,10.70
2022-09-21T03:29:37.272Z,10.66
2022-09-21T03:30:37.254Z,10.68
2022-09-21T03:31:37.261Z,10.68
2022-09-21T03:32:37.234Z,10.73
2022-09-21T03:33:37.227Z,10.66
2022-09-21T03:34:37.210Z,10.60
2022-09-21T03:35:37.201Z,10.68
2022-09-21T03:36:37.222Z,10.70
2022-09-21T03:37:41.141Z,10.66
2022-09-21T03:38:37.167Z,10.73
2022-09-21T03:39:37.170Z,10.68
2022-09-21T03:40:37.217Z,10.70
2022-09-21T03:41:37.142Z,10.70
2022-09-21T03:42:37.122Z,10.74
2022-09-21T03:43:37.129Z,10.74
2022-09-21T03:44:37.100Z,10.77
2022-09-21T03:45:37.102Z,10.78
2022-09-21T03:46:37.132Z,10.76
2022-09-21T03:47:37.075Z,10.81
2022-09-21T03:48:37.057Z,10.81
2022-09-21T03:49:37.052Z,10.77
2022-09-21T03:50:37.050Z,10.76
2022-09-21T03:51:37.026Z,10.73
2022-09-21T03:52:37.014Z,10.78
2022-09-21T03:53:37.003Z,10.78
2022-09-21T03:54:36.992Z,10.86
2022-09-21T03:55:36.993Z,10.78
2022-09-21T03:56:36.971Z,10.76
2022-09-21T03:57:36.960Z,10.80
2022-09-21T03:58:36.947Z,10.77
2022-09-21T03:59:36.955Z,10.81
2022-09-21T04:00:36.935Z,10.74
2022-09-21T04:01:36.948Z,10.74
2022-09-21T04:02:37.004Z,10.70
2022-09-21T04:03:36.894Z,10.68
2022-09-21T04:04:36.889Z,10.71
2022-09-21T04:05:36.880Z,10.70
2022-09-21T04:06:36.876Z,10.71
2022-09-21T04:07:36.851Z,10.65
2022-09-21T04:08:36.839Z,10.70
2022-09-21T04:09:36.827Z,10.73
2022-09-21T04:10:36.827Z,10.65
2022-09-21T04:11:36.806Z,10.71
2022-09-21T04:12:36.794Z,10.60
2022-09-21T04:13:36.786Z,10.59
2022-09-21T04:14:36.773Z,10.47
2022-09-21T04:15:36.987Z,10.47
2022-09-21T04:16:36.748Z,10.55
2022-09-21T04:17:36.740Z,10.52
2022-09-21T04:18:36.730Z,10.53
2022-09-21T04:19:36.717Z,10.46
2022-09-21T04:20:36.716Z,10.52
2022-09-21T04:21:36.697Z,10.52
2022-09-21T04:22:41.113Z,10.56
2022-09-21T04:23:37.670Z,10.52
2022-09-21T04:24:36.672Z,10.51
2022-09-21T04:25:36.662Z,10.52
2022-09-21T04:26:36.644Z,10.53
2022-09-21T04:27:36.629Z,10.51
2022-09-21T04:28:36.619Z,10.40
2022-09-21T04:29:36.611Z,10.51
2022-09-21T04:30:37.891Z,10.51
2022-09-21T04:31:36.606Z,10.53
2022-09-21T04:32:36.576Z,10.40
2022-09-21T04:33:36.564Z,10.42
2022-09-21T04:34:36.563Z,10.39
2022-09-21T04:35:36.544Z,10.47
2022-09-21T04:36:36.973Z,10.52
2022-09-21T04:37:36.520Z,10.40
2022-09-21T04:38:36.512Z,10.37
2022-09-21T04:39:36.506Z,10.40
2022-09-21T04:40:36.540Z,10.44
2022-09-21T04:41:36.478Z,10.36
2022-09-21T04:42:36.469Z,10.39
2022-09-21T04:43:36.454Z,10.43
2022-09-21T04:44:36.458Z,10.40
2022-09-21T04:45:36.431Z,10.39
2022-09-21T04:46:36.486Z,10.40
2022-09-21T04:47:36.429Z,10.40
2022-09-21T04:48:36.435Z,10.42
2022-09-21T04:49:36.390Z,10.36
2022-09-21T04:50:36.389Z,10.37
2022-09-21T04:51:36.375Z,10.40
2022-09-21T04:52:36.366Z,10.33
2022-09-21T04:53:36.345Z,10.52
2022-09-21T04:54:36.349Z,10.36
2022-09-21T04:55:36.327Z,10.34
2022-09-21T04:56:36.318Z,10.51
2022-09-21T04:57:36.306Z,10.53
2022-09-21T04:58:36.292Z,10.52
2022-09-21T04:59:36.292Z,10.56
2022-09-21T05:00:36.270Z,10.60
2022-09-21T05:01:36.280Z,10.63
2022-09-21T05:02:36.250Z,10.68
2022-09-21T05:03:36.360Z,10.71
2022-09-21T05:04:36.236Z,10.63
2022-09-21T05:05:36.216Z,10.68
2022-09-21T05:06:36.204Z,10.70
2022-09-21T05:07:36.197Z,10.70
2022-09-21T05:08:36.185Z,10.74
2022-09-21T05:09:36.180Z,10.71
2022-09-21T05:10:36.162Z,10.71
2022-09-21T05:11:36.148Z,10.71
2022-09-21T05:12:40.704Z,10.70
2022-09-21T05:13:36.128Z,10.74
2022-09-21T05:14:36.131Z,10.81
2022-09-21T05:15:36.161Z,10.80
2022-09-21T05:16:36.100Z,10.76
2022-09-21T05:17:36.083Z,10.77
2022-09-21T05:18:36.086Z,10.88
2022-09-21T05:19:36.084Z,10.91
2022-09-21T05:20:36.051Z,10.80
2022-09-21T05:21:36.041Z,10.91
2022-09-21T05:22:36.030Z,10.89
2022-09-21T05:23:36.030Z,10.91
2022-09-21T05:24:36.009Z,10.84
2022-09-21T05:25:35.996Z,10.84
2022-09-21T05:26:35.987Z,10.92
2022-09-21T05:27:35.976Z,10.91
2022-09-21T05:28:39.817Z,10.92
2022-09-21T05:29:35.956Z,10.96
2022-09-21T05:30:35.979Z,10.94
2022-09-21T05:31:36.025Z,10.92
2022-09-21T05:32:35.920Z,10.98
2022-09-21T05:33:35.919Z,10.91
2022-09-21T05:34:36.878Z,10.95
2022-09-21T05:35:35.905Z,10.99
2022-09-21T05:36:35.877Z,10.95
2022-09-21T05:37:35.864Z,10.94
2022-09-21T05:38:35.945Z,10.89
2022-09-21T05:39:35.840Z,10.95
2022-09-21T05:40:35.928Z,10.95
2022-09-21T05:41:35.823Z,11.02
2022-09-21T05:42:35.810Z,10.96
2022-09-21T05:43:35.810Z,11.02
2022-09-21T05:44:35.791Z,11.09
2022-09-21T05:45:35.809Z,11.09
2022-09-21T05:46:35.766Z,11.07
2022-09-21T05:47:35.754Z,11.07
2022-09-21T05:48:35.753Z,10.99
2022-09-21T05:49:35.732Z,11.01
2022-09-21T05:50:35.725Z,11.09
2022-09-21T05:51:35.728Z,11.10
2022-09-21T05:52:35.701Z,11.03
2022-09-21T05:53:35.713Z,11.13
2022-09-21T05:54:35.679Z,11.14
2022-09-21T05:55:35.673Z,11.16
2022-09-21T05:56:35.662Z,11.27
2022-09-21T05:57:35.648Z,11.27
2022-09-21T05:58:35.650Z,11.29
2022-09-21T05:59:35.631Z,11.35
2022-09-21T06:00:35.616Z,11.44
2022-09-21T06:01:35.679Z,11.47
2022-09-21T06:02:35.650Z,11.57
2022-09-21T06:03:35.613Z,11.59
2022-09-21T06:04:35.585Z,11.67
2022-09-21T06:05:35.570Z,11.80
2022-09-21T06:06:35.551Z,11.87
2022-09-21T06:07:35.655Z,11.93
2022-09-21T06:08:35.533Z,11.93
2022-09-21T06:09:38.885Z,11.93
2022-09-21T06:10:36.509Z,12.08
2022-09-21T06:11:35.498Z,12.05
2022-09-21T06:12:35.486Z,12.12
2022-09-21T06:13:35.477Z,12.05
2022-09-21T06:14:35.479Z,12.20
2022-09-21T06:15:35.453Z,12.19
2022-09-21T06:16:35.467Z,12.20
2022-09-21T06:17:40.944Z,12.21
2022-09-21T06:18:35.459Z,12.33
2022-09-21T06:19:35.423Z,12.31
2022-09-21T06:20:35.398Z,12.42
2022-09-21T06:21:35.386Z,12.42
2022-09-21T06:22:35.378Z,12.44
2022-09-21T06:23:35.389Z,12.38
2022-09-21T06:24:35.354Z,12.48
2022-09-21T06:25:35.342Z,12.51
2022-09-21T06:26:35.335Z,12.51
2022-09-21T06:27:35.340Z,12.46
2022-09-21T06:28:35.319Z,12.52
2022-09-21T06:29:35.299Z,12.60
2022-09-21T06:30:35.309Z,12.52
2022-09-21T06:31:35.277Z,12.62
2022-09-21T06:32:35.267Z,12.60
2022-09-21T06:33:35.268Z,12.70
2022-09-21T06:34:35.247Z,12.56
2022-09-21T06:35:35.302Z,12.57
2022-09-21T06:36:35.224Z,12.63
2022-09-21T06:37:35.211Z,12.64
2022-09-21T06:38:35.228Z,12.67
2022-09-21T06:39:35.215Z,12.64
2022-09-21T06:40:35.296Z,12.70
2022-09-21T06:41:35.168Z,12.71
2022-09-21T06:42:35.168Z,12.67
2022-09-21T06:43:35.148Z,12.67
2022-09-21T06:44:35.140Z,12.63
2022-09-21T06:45:35.170Z,12.67
2022-09-21T06:46:35.114Z,12.69
2022-09-21T06:47:35.122Z,12.63
2022-09-21T06:48:35.094Z,12.67
2022-09-21T06:49:38.113Z,12.70
2022-09-21T06:50:36.090Z,12.66
2022-09-21T06:51:35.059Z,12.67
2022-09-21T06:52:35.058Z,12.67
2022-09-21T06:53:35.038Z,12.71
2022-09-21T06:54:35.031Z,12.71
2022-09-21T06:55:35.090Z,12.77
2022-09-21T06:56:35.005Z,12.81
2022-09-21T06:57:35.009Z,12.79
2022-09-21T06:58:34.983Z,12.79
2022-09-21T06:59:34.972Z,12.79
2022-09-21T07:00:34.962Z,12.75
2022-09-21T07:01:35.049Z,12.81
2022-09-21T07:02:34.950Z,12.82
2022-09-21T07:03:34.928Z,12.87
2022-09-21T07:04:34.918Z,12.92
2022-09-21T07:05:34.906Z,12.96
2022-09-21T07:06:34.901Z,12.93
2022-09-21T07:07:34.893Z,13.06
2022-09-21T07:10:35.852Z,13.00
2022-09-21T07:11:34.860Z,13.06
2022-09-21T07:12:34.844Z,13.12
2022-09-21T07:13:34.819Z,13.04
2022-09-21T07:14:34.811Z,13.18
2022-09-21T07:15:34.801Z,13.17
2022-09-21T07:16:34.857Z,13.21
2022-09-21T07:17:34.788Z,13.22
2022-09-21T07:18:42.546Z,13.30
2022-09-21T07:19:35.754Z,13.32
2022-09-21T07:20:34.748Z,13.41
2022-09-21T07:21:34.734Z,13.40
2022-09-21T07:22:34.754Z,13.38
2022-09-21T07:23:34.712Z,13.47
2022-09-21T07:24:34.763Z,13.49
2022-09-21T07:25:34.694Z,13.49
2022-09-21T07:26:34.681Z,13.56
2022-09-21T07:27:34.698Z,13.65
2022-09-21T07:28:34.656Z,13.63
2022-09-21T07:29:34.646Z,13.69
2022-09-21T07:30:34.636Z,13.73
2022-09-21T07:31:34.659Z,13.77
2022-09-21T07:32:34.627Z,13.87
2022-09-21T07:33:36.122Z,13.91
2022-09-21T07:34:34.619Z,14.01
2022-09-21T07:35:34.583Z,13.94
2022-09-21T07:36:34.572Z,14.07
2022-09-21T07:37:34.569Z,14.10
2022-09-21T07:38:34.582Z,14.35
2022-09-21T07:39:34.540Z,14.56
2022-09-21T07:40:34.603Z,14.52
2022-09-21T07:41:34.516Z,14.57
2022-09-21T07:42:34.516Z,14.65
2022-09-21T07:43:34.513Z,14.75
2022-09-21T07:44:34.486Z,14.87
2022-09-21T07:45:34.538Z,14.91
2022-09-21T07:46:34.493Z,15.05
2022-09-21T07:47:34.465Z,15.15
2022-09-21T07:48:34.442Z,15.41
2022-09-21T07:49:34.431Z,16.03
2022-09-21T07:50:34.421Z,16.12
2022-09-21T07:51:34.405Z,16.15
2022-09-21T07:52:34.417Z,16.37
2022-09-21T07:53:34.387Z,16.49
2022-09-21T07:54:34.391Z,16.63
2022-09-21T07:55:34.363Z,16.68
2022-09-21T07:56:34.356Z,16.71
2022-09-21T07:57:34.353Z,16.74
2022-09-21T07:58:34.332Z,16.68
2022-09-21T07:59:34.340Z,16.68
2022-09-21T08:00:34.365Z,16.70
2022-09-21T08:01:34.299Z,16.80
2022-09-21T08:02:34.401Z,16.92
2022-09-21T08:03:34.278Z,16.90
2022-09-21T08:04:34.287Z,16.80
2022-09-21T08:05:34.275Z,16.70
2022-09-21T08:06:34.248Z,16.67
2022-09-21T08:07:34.248Z,16.60
2022-09-21T08:08:34.227Z,16.63
2022-09-21T08:09:34.214Z,16.62
2022-09-21T08:10:34.202Z,16.71
2022-09-21T08:11:34.190Z,16.74
2022-09-21T08:12:34.195Z,16.71
2022-09-21T08:13:34.169Z,16.70
2022-09-21T08:14:34.159Z,16.74
2022-09-21T08:15:50.323Z,16.78
2022-09-21T08:16:35.862Z,16.68
2022-09-21T08:17:34.138Z,16.67
2022-09-21T08:18:34.119Z,16.55
2022-09-21T08:19:34.113Z,16.56
2022-09-21T08:20:34.095Z,16.49
2022-09-21T08:21:34.087Z,16.37
2022-09-21T08:22:34.097Z,16.37
2022-09-21T08:23:34.063Z,16.40
2022-09-21T08:24:34.052Z,16.44
2022-09-21T08:25:34.040Z,16.34
2022-09-21T08:26:34.030Z,16.38
2022-09-21T08:27:34.046Z,16.34
2022-09-21T08:28:34.010Z,16.27
2022-09-21T08:29:33.996Z,16.20
2022-09-21T08:30:33.987Z,16.25
2022-09-21T08:31:34.148Z,16.04
2022-09-21T08:32:50.628Z,16.03
2022-09-21T08:33:34.955Z,16.07
2022-09-21T08:34:33.943Z,16.06
2022-09-21T08:35:33.935Z,16.09
2022-09-21T08:36:33.922Z,16.01
2022-09-21T08:37:33.920Z,16.01
2022-09-21T08:38:33.898Z,16.00
2022-09-21T08:39:33.890Z,16.01
2022-09-21T08:40:33.943Z,15.94
2022-09-21T08:41:33.867Z,16.00
2022-09-21T08:42:33.864Z,16.04
2022-09-21T08:43:33.847Z,16.01
2022-09-21T08:44:33.834Z,16.15
2022-09-21T08:45:33.825Z,16.15
2022-09-21T08:46:33.851Z,16.30
2022-09-21T08:47:33.830Z,16.25
2022-09-21T08:48:36.852Z,16.30
2022-09-21T08:49:33.783Z,16.23
2022-09-21T08:50:33.772Z,16.20
2022-09-21T08:51:33.759Z,16.23
2022-09-21T08:52:33.760Z,16.26
2022-09-21T08:53:33.737Z,16.31
2022-09-21T08:54:33.726Z,16.37
2022-09-21T08:55:33.717Z,16.40
2022-09-21T08:57:00.624Z,16.38
2022-09-21T08:57:34.708Z,16.53
2022-09-21T08:58:33.686Z,16.67
2022-09-21T08:59:33.672Z,16.70
2022-09-21T09:00:33.677Z,16.90
2022-09-21T09:01:33.736Z,16.99
2022-09-21T09:02:33.653Z,17.04
2022-09-21T09:03:33.686Z,17.20
2022-09-21T09:04:33.618Z,17.44
2022-09-21T09:05:33.613Z,17.33
2022-09-21T09:06:33.596Z,17.36
2022-09-21T09:07:33.615Z,17.57
2022-09-21T09:08:33.574Z,17.62
2022-09-21T09:09:33.566Z,17.70
2022-09-21T09:10:33.554Z,17.82
2022-09-21T09:11:33.545Z,17.63
2022-09-21T09:12:33.543Z,17.63
2022-09-21T09:13:33.526Z,17.46
2022-09-21T09:14:33.512Z,17.55
2022-09-21T09:15:33.501Z,17.48
2022-09-21T09:16:33.519Z,17.69
2022-09-21T09:17:33.494Z,17.84
2022-09-21T09:18:33.466Z,17.91
2022-09-21T09:19:33.477Z,17.89
2022-09-21T09:20:33.447Z,17.91
2022-09-21T09:21:33.440Z,17.97
2022-09-21T09:22:33.442Z,18.03
2022-09-21T09:23:33.420Z,18.22
2022-09-21T09:24:33.406Z,18.29
2022-09-21T09:25:33.402Z,18.58
2022-09-21T09:26:33.382Z,18.79
2022-09-21T09:27:33.385Z,18.87
2022-09-21T09:28:33.362Z,18.86
2022-09-21T09:29:33.353Z,18.94
2022-09-21T09:30:33.341Z,19.42
2022-09-21T09:31:33.406Z,19.53
2022-09-21T09:32:33.328Z,19.66
2022-09-21T09:33:33.311Z,19.69
2022-09-21T09:34:33.303Z,19.65
2022-09-21T09:35:33.313Z,19.94
2022-09-21T09:36:56.861Z,20.06
2022-09-21T09:37:34.275Z,19.80
2022-09-21T09:38:33.256Z,19.84
2022-09-21T09:39:33.255Z,19.87
2022-09-21T09:40:33.314Z,20.03
2022-09-21T09:41:33.232Z,20.09
2022-09-21T09:42:33.278Z,20.33
2022-09-21T09:43:33.198Z,20.53
2022-09-21T09:44:33.199Z,21.05
2022-09-21T09:45:33.178Z,20.87
2022-09-21T09:46:33.222Z,21.20
2022-09-21T09:47:33.167Z,21.74
2022-09-21T09:48:33.142Z,22.37
2022-09-21T09:49:33.137Z,22.72
2022-09-21T09:50:33.124Z,23.17
2022-09-21T09:51:33.142Z,23.49
2022-09-21T09:52:33.136Z,23.64
2022-09-21T09:53:33.092Z,23.92
2022-09-21T09:54:33.094Z,24.54
2022-09-21T09:55:33.076Z,24.45
2022-09-21T09:56:33.084Z,24.44
2022-09-21T09:57:33.051Z,24.63
2022-09-21T09:58:33.039Z,24.49
2022-09-21T09:59:33.033Z,24.35
2022-09-21T10:00:33.017Z,24.56
2022-09-21T10:01:33.061Z,24.79
2022-09-21T10:02:32.999Z,25.13
2022-09-21T10:03:32.991Z,25.34
2022-09-21T10:04:33.024Z,25.61
2022-09-21T10:05:32.969Z,25.65
2022-09-21T10:06:32.973Z,25.65
2022-09-21T10:07:32.971Z,25.49
2022-09-21T10:08:32.946Z,25.50
2022-09-21T10:09:32.945Z,25.35
2022-09-21T10:10:32.919Z,25.38
2022-09-21T10:11:32.920Z,25.30
2022-09-21T10:12:32.896Z,25.05
2022-09-21T10:13:32.888Z,25.27
2022-09-21T10:14:32.909Z,25.31
2022-09-21T10:15:33.018Z,25.61
2022-09-21T10:16:32.904Z,25.97
2022-09-21T10:17:32.849Z,26.04
2022-09-21T10:18:32.839Z,25.97
2022-09-21T10:19:32.829Z,25.93
2022-09-21T10:20:32.820Z,26.21
2022-09-21T10:21:32.821Z,26.11
2022-09-21T10:22:32.799Z,26.08
2022-09-21T10:23:32.810Z,26.29
2022-09-21T10:24:32.778Z,25.67
2022-09-21T10:25:35.790Z,24.88
2022-09-21T10:26:33.851Z,24.32
2022-09-21T10:27:32.756Z,23.65
2022-09-21T10:28:32.745Z,22.96
2022-09-21T10:29:32.734Z,22.38
2022-09-21T10:30:32.728Z,22.01
2022-09-21T10:31:32.793Z,21.72
2022-09-21T10:32:32.703Z,21.39
2022-09-21T10:33:32.690Z,21.05
2022-09-21T10:34:32.681Z,20.74
2022-09-21T10:35:32.669Z,20.38
2022-09-21T10:36:32.669Z,20.31
2022-09-21T10:37:32.649Z,20.10
2022-09-21T10:38:32.637Z,20.00
2022-09-21T10:39:32.647Z,19.88
2022-09-21T10:40:32.649Z,19.83
2022-09-21T10:41:32.606Z,19.55
2022-09-21T10:42:32.595Z,19.47
2022-09-21T10:43:34.752Z,19.29
2022-09-21T10:44:32.593Z,19.10
2022-09-21T10:45:32.566Z,19.10
2022-09-21T10:46:32.662Z,18.98
2022-09-21T10:47:32.546Z,18.86
2022-09-21T10:48:32.533Z,18.77
2022-09-21T10:49:32.521Z,18.72
2022-09-21T10:50:32.512Z,18.58
2022-09-21T10:51:32.518Z,18.42
2022-09-21T10:52:32.489Z,18.36
2022-09-21T10:53:32.487Z,18.44
2022-09-21T10:54:32.466Z,18.54
2022-09-21T10:55:32.490Z,18.58
2022-09-21T10:56:32.445Z,18.54
2022-09-21T10:57:32.451Z,18.46
2022-09-21T10:58:32.432Z,18.34
2022-09-21T10:59:32.413Z,18.21
2022-09-21T11:00:32.417Z,18.39
2022-09-21T11:01:32.439Z,18.28
2022-09-21T11:02:32.453Z,18.28
2022-09-21T11:03:32.373Z,18.29
2022-09-21T11:04:32.356Z,18.18
2022-09-21T11:05:32.367Z,18.12
2022-09-21T11:06:32.339Z,18.13
2022-09-21T11:07:32.334Z,18.15
2022-09-21T11:08:32.314Z,18.15
2022-09-21T11:09:32.314Z,18.18
2022-09-21T11:10:34.513Z,18.15
2022-09-21T11:11:32.346Z,18.13
2022-09-21T11:12:32.271Z,18.06
2022-09-21T11:13:32.285Z,18.07
2022-09-21T11:14:32.254Z,18.07
2022-09-21T11:15:32.308Z,18.10
2022-09-21T11:16:32.263Z,18.09
2022-09-21T11:17:32.224Z,17.91
2022-09-21T11:18:32.208Z,17.97
2022-09-21T11:19:32.205Z,17.94
2022-09-21T11:20:32.197Z,18.02
2022-09-21T11:21:32.192Z,18.00
2022-09-21T11:22:32.167Z,17.92
2022-09-21T11:23:32.157Z,18.00
2022-09-21T11:24:32.148Z,17.92
2022-09-21T11:25:32.148Z,17.92
2022-09-21T11:26:32.200Z,17.88
2022-09-21T11:27:32.164Z,17.87
2022-09-21T11:28:32.102Z,17.85
2022-09-21T11:29:32.092Z,17.88
2022-09-21T11:30:32.100Z,17.87
2022-09-21T11:31:32.074Z,17.81
2022-09-21T11:32:32.063Z,17.85
2022-09-21T11:33:32.056Z,17.88
2022-09-21T11:34:32.038Z,17.84
2022-09-21T11:35:32.040Z,17.92
2022-09-21T11:36:32.020Z,17.97
2022-09-21T11:37:32.008Z,17.95
2022-09-21T11:38:34.343Z,17.97
2022-09-21T11:39:31.994Z,17.87
2022-09-21T11:40:32.019Z,17.92
2022-09-21T11:41:31.981Z,17.82
2022-09-21T11:42:31.951Z,17.74
2022-09-21T11:43:31.982Z,17.85
2022-09-21T11:44:31.935Z,17.76
2022-09-21T11:45:31.935Z,17.71
2022-09-21T11:46:31.988Z,17.85
2022-09-21T11:47:31.902Z,17.87
2022-09-21T11:48:31.887Z,17.88
2022-09-21T11:49:31.882Z,18.04
2022-09-21T11:50:32.070Z,18.04
2022-09-21T11:51:31.856Z,18.07
2022-09-21T11:52:31.852Z,18.17
2022-09-21T11:53:31.836Z,18.18
2022-09-21T11:54:31.825Z,18.24
2022-09-21T11:55:31.882Z,18.24
2022-09-21T11:56:31.888Z,18.24
2022-09-21T11:57:31.790Z,18.25
2022-09-21T11:58:31.778Z,18.29
2022-09-21T11:59:31.788Z,18.25
2022-09-21T12:00:31.770Z,18.29
2022-09-21T12:01:31.749Z,18.24
2022-09-21T12:02:32.002Z,18.25
2022-09-21T12:03:31.730Z,18.27
2022-09-21T12:04:31.729Z,18.28
2022-09-21T12:05:31.709Z,18.25
2022-09-21T12:06:31.711Z,18.12
2022-09-21T12:07:31.702Z,18.19
2022-09-21T12:08:31.711Z,18.17
2022-09-21T12:09:31.663Z,18.19
2022-09-21T12:10:31.657Z,18.13
2022-09-21T12:11:31.666Z,18.06
2022-09-21T12:12:31.631Z,18.18
2022-09-21T12:13:31.628Z,18.03
2022-09-21T12:14:31.641Z,18.00
2022-09-21T12:15:31.613Z,17.89
2022-09-21T12:16:31.637Z,17.81
2022-09-21T12:17:40.807Z,17.79
2022-09-21T12:18:31.564Z,17.88
2022-09-21T12:19:31.556Z,17.84
2022-09-21T12:20:31.542Z,17.84
2022-09-21T12:21:31.547Z,17.76
2022-09-21T12:22:31.521Z,17.67
2022-09-21T12:23:31.511Z,17.70
2022-09-21T12:24:32.100Z,17.82
2022-09-21T12:25:31.491Z,17.73
2022-09-21T12:26:31.492Z,17.73
2022-09-21T12:27:31.470Z,17.71
2022-09-21T12:28:31.455Z,17.64
2022-09-21T12:29:31.444Z,17.73
2022-09-21T12:30:31.536Z,17.79
2022-09-21T12:31:31.627Z,17.74
2022-09-21T12:32:31.429Z,17.81
2022-09-21T12:33:31.404Z,17.88
2022-09-21T12:34:31.392Z,17.89
2022-09-21T12:35:31.381Z,17.92
2022-09-21T12:36:31.587Z,17.92
2022-09-21T12:37:31.359Z,17.91
2022-09-21T12:39:31.341Z,17.85
2022-09-21T12:40:31.374Z,17.88
2022-09-21T12:41:31.334Z,17.81
2022-09-21T12:42:31.424Z,17.82
2022-09-21T12:43:31.299Z,17.79
2022-09-21T12:44:31.282Z,17.82
2022-09-21T12:45:31.273Z,17.81
2022-09-21T12:46:31.358Z,17.84
2022-09-21T12:47:31.269Z,17.76
2022-09-21T12:48:31.245Z,17.76
2022-09-21T12:49:31.230Z,17.74
2022-09-21T12:50:31.219Z,17.78
2022-09-21T12:51:31.218Z,17.79
2022-09-21T12:52:31.198Z,17.84
2022-09-21T12:53:31.186Z,17.81
2022-09-21T12:54:31.185Z,17.88
2022-09-21T12:55:31.167Z,17.78